createdAt,value
2023-04-29T00:00:53.925Z,62.43
2023-04-29T00:03:29.162Z,62.45
2023-04-29T00:06:03.070Z,62.66
2023-04-29T00:08:36.562Z,62.67
2023-04-29T00:11:11.033Z,62.46
2023-04-29T00:13:45.227Z,62.64
2023-04-29T00:16:18.568Z,62.07
2023-04-29T00:18:51.441Z,62.14
2023-04-29T00:21:24.789Z,62.48
2023-04-29T00:23:57.988Z,62.43
2023-04-29T00:26:30.855Z,62.82
2023-04-29T00:29:07.331Z,62.28
2023-04-29T00:31:40.364Z,62.42
2023-04-29T00:34:13.239Z,62.15
2023-04-29T00:36:45.878Z,62.32
2023-04-29T00:39:18.641Z,62.14
2023-04-29T00:41:51.810Z,62.76
2023-04-29T00:44:26.579Z,62.51
2023-04-29T00:47:00.672Z,62.14
2023-04-29T00:49:33.422Z,62.35
2023-04-29T00:52:08.142Z,62.47
2023-04-29T00:54:41.903Z,62.28
2023-04-29T00:57:15.859Z,62.83
2023-04-29T00:59:51.304Z,62.28
2023-04-29T01:02:25.648Z,62.34
2023-04-29T01:05:00.142Z,62.17
2023-04-29T01:07:43.461Z,62.33
2023-04-29T01:10:20.976Z,62.53
2023-04-29T01:13:06.629Z,62.14
2023-04-29T01:15:49.776Z,61.92
2023-04-29T01:18:26.924Z,62.09
2023-04-29T01:21:00.619Z,61.95
2023-04-29T01:23:34.979Z,62.22
2023-04-29T01:26:08.275Z,62.28
2023-04-29T01:29:13.085Z,62.13
2023-04-29T01:31:52.496Z,62.18
2023-04-29T01:34:32.920Z,61.77
2023-04-29T01:37:11.641Z,62.06
2023-04-29T01:40:01.776Z,61.81
2023-04-29T01:42:45.484Z,61.43
2023-04-29T01:45:24.778Z,61.59
2023-04-29T01:47:59.325Z,62.02
2023-04-29T01:50:32.783Z,61.88
2023-04-29T01:53:13.932Z,61.76
2023-04-29T01:55:49.042Z,61.72
2023-04-29T01:58:42.476Z,61.54
2023-04-29T02:01:28.820Z,61.81
2023-04-29T02:04:01.644Z,61.86
2023-04-29T02:06:45.041Z,61.56
2023-04-29T02:09:20.448Z,61.75
2023-04-29T02:12:00.707Z,62.04
2023-04-29T02:14:37.936Z,62.18
2023-04-29T02:17:11.516Z,61.88
2023-04-29T02:19:55.130Z,62.12
2023-04-29T02:22:33.829Z,62.01
2023-04-29T02:25:07.853Z,61.94
2023-04-29T02:27:47.471Z,61.98
2023-04-29T02:30:20.613Z,61.87
2023-04-29T02:32:54.621Z,61.61
2023-04-29T02:35:27.476Z,61.74
2023-04-29T02:38:00.323Z,61.37
2023-04-29T02:40:33.279Z,61.46
2023-04-29T02:43:08.069Z,61.66
2023-04-29T02:45:41.055Z,61.70
2023-04-29T02:48:19.489Z,61.56
2023-04-29T02:50:52.811Z,61.84
2023-04-29T02:53:27.822Z,61.37
2023-04-29T02:56:00.671Z,61.62
2023-04-29T02:58:35.124Z,62.10
2023-04-29T03:01:09.428Z,61.57
2023-04-29T03:03:42.465Z,61.97
2023-04-29T03:06:15.910Z,61.97
2023-04-29T03:08:48.679Z,61.95
2023-04-29T03:11:24.574Z,61.96
2023-04-29T03:13:58.807Z,62.32
2023-04-29T03:16:32.036Z,61.81
2023-04-29T03:19:05.239Z,61.66
2023-04-29T03:21:38.154Z,62.28
2023-04-29T03:24:10.902Z,61.76
2023-04-29T03:26:44.243Z,61.55
2023-04-29T03:29:18.558Z,61.63
2023-04-29T03:31:51.852Z,62.07
2023-04-29T03:34:25.376Z,61.66
2023-04-29T03:37:18.450Z,61.69
2023-04-29T03:39:57.122Z,61.61
2023-04-29T03:42:29.861Z,61.66
2023-04-29T03:45:04.311Z,61.91
2023-04-29T03:47:37.140Z,61.62
2023-04-29T03:50:10.775Z,61.43
2023-04-29T03:52:44.566Z,61.48
2023-04-29T03:55:21.412Z,61.46
2023-04-29T03:57:54.786Z,61.32
2023-04-29T04:00:31.515Z,61.51
2023-04-29T04:03:07.864Z,61.39
2023-04-29T04:05:42.057Z,61.14
2023-04-29T04:08:18.164Z,61.00
2023-04-29T04:11:02.926Z,60.84
2023-04-29T04:13:43.221Z,60.65
2023-04-29T04:16:18.047Z,61.04
2023-04-29T04:18:50.836Z,60.79
2023-04-29T04:21:23.927Z,60.71
2023-04-29T04:24:08.872Z,60.39
2023-04-29T04:26:41.655Z,60.71
2023-04-29T04:29:20.853Z,60.81
2023-04-29T04:32:11.947Z,60.33
2023-04-29T04:34:45.177Z,60.80
2023-04-29T04:37:18.579Z,60.70
2023-04-29T04:39:56.794Z,60.65
2023-04-29T04:42:29.781Z,60.97
2023-04-29T04:45:04.701Z,60.61
2023-04-29T04:47:49.695Z,60.72
2023-04-29T04:50:33.434Z,60.92
2023-04-29T04:53:06.774Z,60.63
2023-04-29T04:56:02.454Z,60.65
2023-04-29T04:58:37.473Z,60.56
2023-04-29T05:01:12.866Z,60.43
2023-04-29T05:03:47.140Z,60.89
2023-04-29T05:06:22.854Z,60.85
2023-04-29T05:08:56.463Z,60.83
2023-04-29T05:11:30.323Z,60.91
2023-04-29T05:14:13.306Z,60.86
2023-04-29T05:16:46.752Z,61.00
2023-04-29T05:19:21.701Z,60.72
2023-04-29T05:21:54.674Z,60.81
2023-04-29T05:24:29.826Z,61.01
2023-04-29T05:27:04.259Z,61.11
2023-04-29T05:29:38.447Z,60.58
2023-04-29T05:32:13.440Z,60.85
2023-04-29T05:34:47.964Z,60.96
2023-04-29T05:37:21.001Z,61.25
2023-04-29T05:40:16.982Z,60.85
2023-04-29T05:42:50.124Z,61.43
2023-04-29T05:45:23.009Z,60.91
2023-04-29T05:47:56.126Z,61.77
2023-04-29T05:50:30.768Z,62.21
2023-04-29T05:53:04.871Z,62.23
2023-04-29T05:55:37.837Z,62.35
2023-04-29T05:58:10.568Z,62.72
2023-04-29T06:00:44.036Z,62.58
2023-04-29T06:03:23.371Z,62.59
2023-04-29T06:06:20.768Z,62.19
2023-04-29T06:09:13.488Z,62.37
2023-04-29T06:11:52.528Z,62.15
2023-04-29T06:14:27.139Z,62.34
2023-04-29T06:17:00.036Z,62.27
2023-04-29T06:19:33.907Z,62.71
2023-04-29T06:22:08.109Z,62.41
2023-04-29T06:24:41.773Z,62.55
2023-04-29T06:27:26.838Z,63.04
2023-04-29T06:30:00.180Z,62.82
2023-04-29T06:32:42.634Z,62.58
2023-04-29T06:35:18.660Z,62.20
2023-04-29T06:38:25.798Z,62.75
2023-04-29T06:41:10.393Z,62.75
2023-04-29T06:44:12.383Z,62.95
2023-04-29T06:47:04.951Z,63.10
2023-04-29T06:50:07.826Z,62.80
2023-04-29T06:52:40.725Z,62.48
2023-04-29T06:55:17.334Z,62.67
2023-04-29T07:03:45.479Z,62.24
2023-04-29T07:06:19.231Z,62.28
2023-04-29T07:09:04.215Z,61.98
2023-04-29T07:11:38.536Z,62.59
2023-04-29T07:14:11.950Z,62.54
2023-04-29T07:16:45.079Z,62.67
2023-04-29T07:19:18.939Z,62.07
2023-04-29T07:22:00.104Z,63.79
2023-04-29T07:24:33.470Z,64.21
2023-04-29T07:27:10.750Z,63.64
2023-04-29T07:29:43.846Z,63.92
2023-04-29T07:32:17.193Z,63.26
2023-04-29T07:34:50.384Z,62.79
2023-04-29T07:37:23.234Z,62.46
2023-04-29T07:39:57.433Z,63.05
2023-04-29T07:42:31.828Z,61.48
2023-04-29T07:45:06.387Z,62.83
2023-04-29T07:47:39.960Z,61.43
2023-04-29T07:50:12.938Z,62.02
2023-04-29T07:52:47.263Z,61.26
2023-04-29T07:55:27.311Z,61.08
2023-04-29T07:58:02.613Z,62.62
2023-04-29T08:00:38.572Z,60.34
2023-04-29T08:03:12.289Z,61.30
2023-04-29T08:05:45.356Z,61.47
2023-04-29T08:08:21.671Z,61.38
2023-04-29T08:10:58.659Z,61.27
2023-04-29T08:13:32.993Z,61.70
2023-04-29T08:16:11.051Z,61.10
2023-04-29T08:18:50.547Z,60.72
2023-04-29T08:21:27.801Z,61.58
2023-04-29T08:24:00.896Z,61.67
2023-04-29T08:26:33.886Z,60.94
2023-04-29T08:29:07.874Z,61.42
2023-04-29T08:31:43.330Z,57.67
2023-04-29T08:34:16.274Z,60.15
2023-04-29T08:36:51.018Z,59.34
2023-04-29T08:39:23.826Z,57.03
2023-04-29T08:41:58.048Z,59.68
2023-04-29T08:44:34.023Z,59.29
2023-04-29T08:47:07.184Z,59.50
2023-04-29T08:49:40.073Z,59.64
2023-04-29T08:52:12.950Z,57.86
2023-04-29T08:54:45.872Z,56.89
2023-04-29T08:57:19.105Z,59.18
2023-04-29T08:59:53.708Z,59.05
2023-04-29T09:02:27.696Z,58.77
2023-04-29T09:05:08.781Z,58.06
2023-04-29T09:07:42.705Z,57.63
2023-04-29T09:10:17.450Z,57.42
2023-04-29T09:12:50.956Z,56.76
2023-04-29T09:15:30.575Z,57.54
2023-04-29T09:18:08.331Z,54.76
2023-04-29T09:20:43.372Z,55.87
2023-04-29T09:23:39.773Z,54.34
2023-04-29T09:26:55.339Z,56.28
2023-04-29T09:29:28.366Z,54.68
2023-04-29T09:32:02.632Z,56.94
2023-04-29T09:34:38.598Z,56.89
2023-04-29T09:37:26.128Z,57.03
2023-04-29T09:39:58.927Z,56.36
2023-04-29T09:42:32.301Z,57.04
2023-04-29T09:45:07.378Z,56.71
2023-04-29T09:47:41.911Z,56.77
2023-04-29T09:50:19.584Z,56.57
2023-04-29T09:52:52.447Z,57.36
2023-04-29T09:55:25.256Z,56.76
2023-04-29T09:57:58.189Z,56.66
2023-04-29T10:00:32.814Z,57.16
2023-04-29T10:03:08.787Z,57.16
2023-04-29T10:05:43.910Z,57.63
2023-04-29T10:08:16.909Z,57.50
2023-04-29T10:10:50.399Z,57.08
2023-04-29T10:13:26.080Z,56.41
2023-04-29T10:16:08.458Z,56.98
2023-04-29T10:18:49.955Z,56.60
2023-04-29T10:21:29.279Z,56.45
2023-04-29T10:24:04.572Z,56.02
2023-04-29T10:26:40.210Z,56.22
2023-04-29T10:29:15.404Z,56.42
2023-04-29T10:31:51.220Z,56.61
2023-04-29T10:34:27.076Z,53.78
2023-04-29T10:37:00.520Z,53.36
2023-04-29T10:39:41.002Z,47.22
2023-04-29T10:42:23.593Z,50.44
2023-04-29T10:45:28.630Z,50.68
2023-04-29T10:48:13.106Z,51.44
2023-04-29T10:51:06.038Z,47.75
2023-04-29T10:54:01.209Z,44.18
2023-04-29T10:56:38.766Z,50.09
2023-04-29T10:59:16.626Z,49.57
2023-04-29T11:01:52.855Z,46.17
2023-04-29T11:04:26.090Z,48.72
2023-04-29T11:07:02.970Z,47.77
2023-04-29T11:09:38.648Z,47.87
2023-04-29T11:12:11.663Z,46.45
2023-04-29T11:14:50.480Z,46.50
2023-04-29T11:17:26.062Z,46.42
2023-04-29T11:20:01.973Z,46.16
2023-04-29T11:22:36.860Z,46.24
2023-04-29T11:25:12.118Z,47.41
2023-04-29T11:27:48.435Z,46.56
2023-04-29T11:30:21.888Z,46.15
2023-04-29T11:32:54.985Z,47.33
2023-04-29T11:35:27.920Z,41.42
2023-04-29T11:38:02.091Z,45.26
2023-04-29T11:40:34.968Z,46.34
2023-04-29T11:43:10.011Z,45.63
2023-04-29T11:45:43.048Z,45.67
2023-04-29T11:48:21.856Z,45.80
2023-04-29T11:50:58.036Z,44.02
2023-04-29T11:53:35.013Z,45.53
2023-04-29T11:56:09.941Z,40.89
2023-04-29T11:58:44.170Z,40.70
2023-04-29T12:01:17.168Z,45.24
2023-04-29T12:03:50.980Z,43.82
2023-04-29T12:06:28.799Z,43.09
2023-04-29T12:09:04.520Z,43.51
2023-04-29T12:11:42.823Z,39.09
2023-04-29T12:14:19.036Z,43.62
2023-04-29T12:16:57.998Z,44.93
2023-04-29T12:19:33.838Z,45.40
2023-04-29T12:22:09.827Z,42.92
2023-04-29T12:24:44.274Z,45.75
2023-04-29T12:27:18.305Z,46.22
2023-04-29T12:29:53.481Z,45.33
2023-04-29T12:32:27.396Z,46.52
2023-04-29T12:35:00.644Z,45.17
2023-04-29T12:37:39.696Z,46.60
2023-04-29T12:40:17.444Z,46.54
2023-04-29T12:42:50.402Z,46.53
2023-04-29T12:45:32.068Z,45.92
2023-04-29T12:48:10.002Z,47.17
2023-04-29T12:50:52.524Z,45.33
2023-04-29T12:53:25.514Z,46.18
2023-04-29T12:56:00.077Z,45.43
2023-04-29T12:58:34.316Z,48.02
2023-04-29T13:01:07.058Z,46.06
2023-04-29T13:03:40.111Z,43.10
2023-04-29T13:06:12.965Z,45.13
2023-04-29T13:08:45.664Z,43.84
2023-04-29T13:11:20.202Z,46.69
2023-04-29T13:13:53.004Z,46.89
2023-04-29T13:16:26.026Z,47.46
2023-04-29T13:19:08.854Z,47.04
2023-04-29T13:21:52.433Z,46.00
2023-04-29T13:24:25.191Z,45.67
2023-04-29T13:26:59.306Z,46.35
2023-04-29T13:29:32.468Z,46.11
2023-04-29T13:32:06.143Z,43.29
2023-04-29T13:34:40.938Z,44.24
2023-04-29T13:37:13.813Z,43.15
2023-04-29T13:39:48.092Z,44.49
2023-04-29T13:42:26.245Z,41.74
2023-04-29T13:45:00.578Z,45.92
2023-04-29T13:47:34.181Z,44.38
2023-04-29T14:03:10.321Z,44.61
2023-04-29T14:05:43.295Z,44.66
2023-04-29T14:08:16.264Z,42.58
2023-04-29T14:10:49.045Z,45.38
2023-04-29T14:13:23.046Z,43.00
2023-04-29T14:15:56.666Z,45.51
2023-04-29T14:18:30.586Z,46.00
2023-04-29T14:21:03.527Z,44.48
2023-04-29T14:23:36.152Z,45.46
2023-04-29T14:26:23.187Z,46.26
2023-04-29T14:29:01.768Z,45.20
2023-04-29T14:31:38.144Z,45.95
2023-04-29T14:34:11.131Z,46.59
2023-04-29T14:36:45.482Z,45.34
2023-04-29T14:39:21.396Z,45.50
2023-04-29T14:41:54.547Z,44.93
2023-04-29T14:44:28.708Z,45.97
2023-04-29T14:47:01.623Z,45.18
2023-04-29T14:49:34.159Z,44.46
2023-04-29T14:52:06.926Z,46.12
2023-04-29T14:54:42.582Z,46.75
2023-04-29T14:57:18.542Z,46.37
2023-04-29T14:59:53.147Z,45.34
2023-04-29T15:02:26.387Z,46.17
2023-04-29T15:04:59.101Z,44.82
2023-04-29T15:07:32.996Z,45.26
2023-04-29T15:10:09.320Z,45.49
2023-04-29T15:12:42.418Z,45.42
2023-04-29T15:15:16.915Z,45.17
2023-04-29T15:17:50.242Z,44.90
2023-04-29T15:20:23.553Z,44.33
2023-04-29T15:22:56.406Z,44.87
2023-04-29T15:25:28.935Z,44.37
2023-04-29T15:28:02.021Z,44.41
2023-04-29T15:30:36.645Z,45.38
2023-04-29T15:33:09.679Z,44.74
2023-04-29T15:35:42.517Z,45.45
2023-04-29T15:38:15.221Z,45.75
2023-04-29T15:40:48.249Z,44.22
2023-04-29T15:43:22.722Z,44.77
2023-04-29T15:45:59.699Z,44.79
2023-04-29T15:48:32.585Z,43.85
2023-04-29T15:51:05.537Z,44.32
2023-04-29T15:53:39.253Z,44.79
2023-04-29T15:56:12.035Z,43.58
2023-04-29T15:58:44.966Z,44.61
2023-04-29T16:01:19.246Z,44.81
2023-04-29T16:03:52.207Z,44.93
2023-04-29T16:06:25.248Z,43.34
2023-04-29T16:08:57.860Z,44.61
2023-04-29T16:11:30.892Z,43.77
2023-04-29T16:14:03.760Z,44.45
2023-04-29T16:16:37.844Z,45.22
2023-04-29T16:19:11.152Z,44.44
2023-04-29T16:21:48.608Z,44.94
2023-04-29T16:24:32.886Z,45.47
2023-04-29T16:27:10.714Z,45.00
2023-04-29T16:29:51.922Z,44.52
2023-04-29T16:32:38.249Z,44.87
2023-04-29T16:35:23.068Z,44.79
2023-04-29T16:37:56.667Z,44.63
2023-04-29T16:40:29.765Z,44.58
2023-04-29T16:43:02.763Z,44.55
2023-04-29T16:45:35.657Z,44.70
2023-04-29T16:48:10.477Z,43.05
2023-04-29T16:50:43.549Z,43.58
2023-04-29T16:53:16.328Z,43.50
2023-04-29T16:55:49.502Z,43.57
2023-04-29T16:58:22.887Z,43.47
2023-04-29T17:00:55.839Z,43.26
2023-04-29T17:03:30.699Z,43.64
2023-04-29T17:06:06.614Z,41.79
2023-04-29T17:08:44.674Z,42.55
2023-04-29T17:11:18.405Z,43.14
2023-04-29T17:13:59.590Z,42.76
2023-04-29T17:16:33.594Z,42.47
2023-04-29T17:19:14.520Z,42.90
2023-04-29T17:21:50.656Z,43.39
2023-04-29T17:24:26.761Z,42.89
2023-04-29T17:27:00.639Z,43.13
2023-04-29T17:29:36.659Z,42.81
2023-04-29T17:32:11.408Z,42.42
2023-04-29T17:34:45.895Z,42.98
2023-04-29T17:37:25.029Z,43.01
2023-04-29T17:40:03.605Z,43.23
2023-04-29T17:42:36.748Z,43.22
2023-04-29T17:45:11.288Z,43.49
2023-04-29T17:47:44.232Z,43.40
2023-04-29T17:50:18.929Z,43.74
2023-04-29T17:52:55.299Z,43.61
2023-04-29T17:55:28.258Z,44.01
2023-04-29T17:58:06.770Z,43.89
2023-04-29T18:00:44.531Z,43.67
2023-04-29T18:03:20.121Z,44.11
2023-04-29T18:05:55.021Z,43.65
2023-04-29T18:08:28.156Z,43.70
2023-04-29T18:11:01.188Z,43.63
2023-04-29T18:13:41.129Z,43.48
2023-04-29T18:16:23.650Z,43.67
2023-04-29T18:18:57.246Z,43.75
2023-04-29T18:21:31.878Z,43.89
2023-04-29T18:24:07.365Z,43.82
2023-04-29T18:26:40.271Z,43.74
2023-04-29T18:29:13.104Z,43.63
2023-04-29T18:31:46.463Z,43.65
2023-04-29T18:34:19.279Z,43.33
2023-04-29T18:36:53.533Z,43.48
2023-04-29T18:39:26.504Z,43.58
2023-04-29T18:41:59.386Z,43.50
2023-04-29T18:44:34.236Z,43.01
2023-04-29T18:47:07.209Z,43.54
2023-04-29T18:49:39.821Z,43.49
2023-04-29T18:52:13.973Z,43.04
2023-04-29T18:54:46.834Z,43.95
2023-04-29T18:57:19.527Z,43.19
2023-04-29T18:59:53.302Z,43.12
2023-04-29T19:02:26.313Z,43.88
2023-04-29T19:05:02.560Z,42.91
2023-04-29T19:07:36.780Z,43.54
2023-04-29T19:10:10.353Z,43.80
2023-04-29T19:12:43.224Z,43.22
2023-04-29T19:15:17.735Z,43.99
2023-04-29T19:17:50.649Z,43.70
2023-04-29T19:20:24.007Z,43.62
2023-04-29T19:22:58.274Z,43.74
2023-04-29T19:25:31.988Z,44.19
2023-04-29T19:28:05.168Z,44.11
2023-04-29T19:30:38.511Z,44.58
2023-04-29T19:33:14.301Z,44.56
2023-04-29T19:35:49.517Z,44.56
2023-04-29T19:38:24.427Z,45.05
2023-04-29T19:40:57.642Z,45.21
2023-04-29T19:43:30.541Z,45.11
2023-04-29T19:46:03.501Z,45.67
2023-04-29T19:48:36.582Z,45.62
2023-04-29T19:51:10.297Z,45.68
2023-04-29T19:53:44.630Z,45.95
2023-04-29T19:56:19.358Z,46.29
2023-04-29T19:58:52.289Z,46.56
2023-04-29T20:01:25.624Z,46.33
2023-04-29T20:03:58.838Z,46.94
2023-04-29T20:06:32.907Z,46.77
2023-04-29T20:09:09.150Z,47.30
2023-04-29T20:11:42.136Z,47.34
2023-04-29T20:14:14.851Z,47.28
2023-04-29T20:16:47.859Z,47.29
2023-04-29T20:19:22.504Z,47.54
2023-04-29T20:21:55.584Z,47.79
2023-04-29T20:24:30.192Z,48.13
2023-04-29T20:27:06.716Z,47.79
2023-04-29T20:29:39.625Z,47.62
2023-04-29T20:32:12.281Z,48.06
2023-04-29T20:34:45.157Z,48.12
2023-04-29T20:37:19.973Z,48.34
2023-04-29T20:39:54.483Z,48.19
2023-04-29T20:42:28.529Z,48.22
2023-04-29T20:45:03.172Z,48.51
2023-04-29T20:47:36.111Z,48.53
2023-04-29T20:50:10.973Z,48.61
2023-04-29T20:52:44.462Z,48.83
2023-04-29T20:55:18.556Z,49.04
2023-04-29T20:57:51.350Z,49.59
2023-04-29T21:00:24.294Z,49.40
2023-04-29T21:02:56.975Z,49.79
2023-04-29T21:05:29.706Z,49.28
2023-04-29T21:08:02.661Z,49.42
2023-04-29T21:10:37.795Z,49.40
2023-04-29T21:13:13.194Z,49.54
2023-04-29T21:15:47.790Z,49.63
2023-04-29T21:18:20.711Z,49.73
2023-04-29T21:20:53.441Z,50.09
2023-04-29T21:23:26.167Z,49.76
2023-04-29T21:26:00.225Z,49.98
2023-04-29T21:28:33.082Z,50.09
2023-04-29T21:31:06.392Z,50.33
2023-04-29T21:33:39.910Z,50.18
2023-04-29T21:36:13.222Z,50.41
2023-04-29T21:38:46.212Z,50.41
2023-04-29T21:41:26.634Z,50.66
2023-04-29T21:44:01.394Z,50.81
2023-04-29T21:46:35.330Z,50.45
2023-04-29T21:49:08.591Z,51.09
2023-04-29T21:51:41.418Z,50.78
2023-04-29T21:54:14.505Z,51.25
2023-04-29T21:56:48.686Z,51.14
2023-04-29T21:59:21.744Z,51.48
2023-04-29T22:02:00.343Z,51.49
2023-04-29T22:04:34.698Z,51.37
2023-04-29T22:07:08.491Z,51.67
2023-04-29T22:09:41.289Z,51.69
2023-04-29T22:12:15.460Z,51.68
2023-04-29T22:14:48.399Z,51.37
2023-04-29T22:17:21.563Z,51.86
2023-04-29T22:19:54.605Z,52.26
2023-04-29T22:22:27.662Z,52.21
2023-04-29T22:25:00.823Z,52.61
2023-04-29T22:27:35.009Z,52.41
2023-04-29T22:30:09.388Z,52.61
2023-04-29T22:32:42.383Z,52.45
2023-04-29T22:35:18.011Z,52.66
2023-04-29T22:37:50.894Z,52.68
2023-04-29T22:40:24.663Z,52.88
2023-04-29T22:42:58.857Z,52.75
2023-04-29T22:45:31.950Z,53.15
2023-04-29T22:48:05.274Z,53.03
2023-04-29T22:50:39.651Z,53.03
2023-04-29T22:53:12.454Z,53.10
2023-04-29T22:55:50.599Z,53.56
2023-04-29T22:58:25.895Z,53.57
2023-04-29T23:00:59.221Z,53.68
2023-04-29T23:03:31.913Z,53.63
2023-04-29T23:06:05.062Z,53.61
2023-04-29T23:08:38.132Z,53.70
2023-04-29T23:11:11.882Z,53.77
2023-04-29T23:13:46.006Z,53.54
2023-04-29T23:16:19.052Z,53.87
2023-04-29T23:18:51.995Z,53.86
2023-04-29T23:21:27.057Z,54.08
2023-04-29T23:23:59.837Z,54.21
2023-04-29T23:26:32.696Z,54.03
2023-04-29T23:29:07.310Z,54.27
2023-04-29T23:31:40.273Z,54.31
2023-04-29T23:34:13.203Z,54.21
2023-04-29T23:36:48.380Z,54.39
2023-04-29T23:39:21.362Z,54.11
2023-04-29T23:41:54.346Z,54.54
2023-04-29T23:44:28.615Z,54.49
2023-04-29T23:47:04.123Z,54.48
2023-04-29T23:49:37.286Z,54.52
2023-04-29T23:52:11.577Z,54.60
2023-04-29T23:54:44.451Z,54.82
2023-04-29T23:57:17.908Z,54.62
2023-04-29T23:59:52.862Z,54.74
